sensor_id;sensor_type;location;lat;lon;timestamp;pressure;altitude;pressure_sealevel;temperature;humidity
25498;BME280;13406;53.380;7.226;2024-02-21T00:00:08;102091.34;;;9.43;100.00
25498;BME280;13406;53.380;7.226;2024-02-21T00:02:34;102073.09;;;9.38;100.00
25498;BME280;13406;53.380;7.226;2024-02-21T00:05:00;102071.13;;;9.40;100.00
25498;BME280;13406;53.380;7.226;2024-02-21T00:07:25;102109.81;;;9.54;100.00
25498;BME280;13406;53.380;7.226;2024-02-21T00:09:51;102100.81;;;9.55;100.00
25498;BME280;13406;53.380;7.226;2024-02-21T00:12:16;102082.88;;;9.56;100.00
25498;BME280;13406;53.380;7.226;2024-02-21T00:14:42;102088.59;;;9.61;100.00
25498;BME280;13406;53.380;7.226;2024-02-21T00:17:07;102091.44;;;9.59;100.00
25498;BME280;13406;53.380;7.226;2024-02-21T00:19:34;102080.72;;;9.59;100.00
25498;BME280;13406;53.380;7.226;2024-02-21T00:21:59;102069.47;;;9.47;100.00
25498;BME280;13406;53.380;7.226;2024-02-21T00:24:24;102081.41;;;9.61;100.00
25498;BME280;13406;53.380;7.226;2024-02-21T00:26:50;102043.03;;;9.53;100.00
25498;BME280;13406;53.380;7.226;2024-02-21T00:29:15;101923.88;;;8.64;100.00
25498;BME280;13406;53.380;7.226;2024-02-21T00:31:41;102050.56;;;9.49;100.00
25498;BME280;13406;53.380;7.226;2024-02-21T00:34:06;101989.66;;;9.17;100.00
25498;BME280;13406;53.380;7.226;2024-02-21T00:36:32;101903.97;;;8.58;100.00
25498;BME280;13406;53.380;7.226;2024-02-21T00:38:58;101946.94;;;8.99;100.00
25498;BME280;13406;53.380;7.226;2024-02-21T00:41:23;101964.00;;;8.98;100.00
25498;BME280;13406;53.380;7.226;2024-02-21T00:43:48;101998.78;;;9.32;100.00
25498;BME280;13406;53.380;7.226;2024-02-21T00:46:15;101989.44;;;9.02;100.00
25498;BME280;13406;53.380;7.226;2024-02-21T00:48:40;101816.66;;;7.88;100.00
25498;BME280;13406;53.380;7.226;2024-02-21T00:51:07;102018.72;;;9.03;100.00
25498;BME280;13406;53.380;7.226;2024-02-21T00:53:33;101999.25;;;8.93;100.00
25498;BME280;13406;53.380;7.226;2024-02-21T00:55:58;101917.84;;;8.35;100.00
25498;BME280;13406;53.380;7.226;2024-02-21T00:58:24;102035.47;;;9.05;100.00
25498;BME280;13406;53.380;7.226;2024-02-21T01:00:49;101948.75;;;8.56;100.00
25498;BME280;13406;53.380;7.226;2024-02-21T01:03:14;101965.34;;;8.68;100.00
25498;BME280;13406;53.380;7.226;2024-02-21T01:05:40;102019.19;;;8.99;100.00
25498;BME280;13406;53.380;7.226;2024-02-21T01:08:05;102029.31;;;9.13;100.00
25498;BME280;13406;53.380;7.226;2024-02-21T01:10:31;102023.25;;;9.03;100.00
25498;BME280;13406;53.380;7.226;2024-02-21T01:12:56;102025.19;;;8.93;100.00
25498;BME280;13406;53.380;7.226;2024-02-21T01:15:22;102006.00;;;8.97;100.00
25498;BME280;13406;53.380;7.226;2024-02-21T01:17:47;101984.50;;;8.81;100.00
25498;BME280;13406;53.380;7.226;2024-02-21T01:20:12;102008.66;;;8.97;100.00
25498;BME280;13406;53.380;7.226;2024-02-21T01:22:38;101997.03;;;8.80;100.00
25498;BME280;13406;53.380;7.226;2024-02-21T01:25:04;101927.16;;;8.49;100.00
25498;BME280;13406;53.380;7.226;2024-02-21T01:27:29;101921.66;;;8.51;100.00
25498;BME280;13406;53.380;7.226;2024-02-21T01:29:57;101918.66;;;8.54;100.00
25498;BME280;13406;53.380;7.226;2024-02-21T01:32:23;101924.34;;;8.51;100.00
25498;BME280;13406;53.380;7.226;2024-02-21T01:34:51;102037.03;;;9.16;100.00
25498;BME280;13406;53.380;7.226;2024-02-21T01:37:17;101990.25;;;8.94;100.00
25498;BME280;13406;53.380;7.226;2024-02-21T01:39:42;101958.00;;;8.70;100.00
25498;BME280;13406;53.380;7.226;2024-02-21T01:42:07;102029.81;;;9.17;100.00
25498;BME280;13406;53.380;7.226;2024-02-21T01:44:34;102022.44;;;9.11;100.00
25498;BME280;13406;53.380;7.226;2024-02-21T01:47:00;101946.84;;;8.74;100.00
25498;BME280;13406;53.380;7.226;2024-02-21T01:49:25;101947.50;;;8.76;100.00
25498;BME280;13406;53.380;7.226;2024-02-21T01:51:52;101978.25;;;9.07;100.00
25498;BME280;13406;53.380;7.226;2024-02-21T01:54:18;102000.19;;;9.10;100.00
25498;BME280;13406;53.380;7.226;2024-02-21T01:56:44;102001.34;;;9.08;100.00
25498;BME280;13406;53.380;7.226;2024-02-21T01:59:12;101986.84;;;8.84;100.00
25498;BME280;13406;53.380;7.226;2024-02-21T02:01:38;102012.56;;;9.11;100.00
25498;BME280;13406;53.380;7.226;2024-02-21T02:04:04;101988.38;;;8.87;100.00
25498;BME280;13406;53.380;7.226;2024-02-21T02:06:30;101909.75;;;8.27;100.00
25498;BME280;13406;53.380;7.226;2024-02-21T02:08:56;102014.13;;;8.88;100.00
25498;BME280;13406;53.380;7.226;2024-02-21T02:11:22;102029.34;;;8.87;100.00
25498;BME280;13406;53.380;7.226;2024-02-21T02:13:47;101923.81;;;8.29;100.00
25498;BME280;13406;53.380;7.226;2024-02-21T02:16:13;101981.16;;;8.53;100.00
25498;BME280;13406;53.380;7.226;2024-02-21T02:18:38;102000.41;;;8.56;100.00
25498;BME280;13406;53.380;7.226;2024-02-21T02:21:10;102024.47;;;8.82;100.00
25498;BME280;13406;53.380;7.226;2024-02-21T02:23:39;102004.00;;;8.73;100.00
25498;BME280;13406;53.380;7.226;2024-02-21T02:26:05;102038.53;;;8.85;100.00
25498;BME280;13406;53.380;7.226;2024-02-21T02:28:32;102033.41;;;8.65;100.00
25498;BME280;13406;53.380;7.226;2024-02-21T02:30:57;102018.69;;;8.69;100.00
25498;BME280;13406;53.380;7.226;2024-02-21T02:33:23;102037.94;;;8.73;100.00
25498;BME280;13406;53.380;7.226;2024-02-21T02:35:48;102040.72;;;8.63;100.00
25498;BME280;13406;53.380;7.226;2024-02-21T02:38:14;102040.34;;;8.58;100.00
25498;BME280;13406;53.380;7.226;2024-02-21T02:40:41;102053.31;;;8.45;100.00
25498;BME280;13406;53.380;7.226;2024-02-21T02:43:07;102023.34;;;8.41;100.00
25498;BME280;13406;53.380;7.226;2024-02-21T02:45:32;102012.03;;;8.29;100.00
25498;BME280;13406;53.380;7.226;2024-02-21T02:47:58;102049.31;;;8.49;100.00
25498;BME280;13406;53.380;7.226;2024-02-21T02:50:25;102088.94;;;8.71;100.00
25498;BME280;13406;53.380;7.226;2024-02-21T02:52:50;102088.19;;;8.61;100.00
25498;BME280;13406;53.380;7.226;2024-02-21T02:55:16;102106.88;;;8.79;100.00
25498;BME280;13406;53.380;7.226;2024-02-21T02:57:42;102101.47;;;8.71;100.00
25498;BME280;13406;53.380;7.226;2024-02-21T03:00:08;102114.06;;;8.78;100.00
25498;BME280;13406;53.380;7.226;2024-02-21T03:02:35;102061.22;;;8.36;100.00
25498;BME280;13406;53.380;7.226;2024-02-21T03:05:12;102082.56;;;8.46;100.00
25498;BME280;13406;53.380;7.226;2024-02-21T03:07:40;102038.25;;;8.08;100.00
25498;BME280;13406;53.380;7.226;2024-02-21T03:10:06;102131.75;;;8.71;100.00
25498;BME280;13406;53.380;7.226;2024-02-21T03:12:31;102098.59;;;8.46;100.00
25498;BME280;13406;53.380;7.226;2024-02-21T03:14:57;102124.94;;;8.59;100.00
25498;BME280;13406;53.380;7.226;2024-02-21T03:17:23;102132.69;;;8.62;100.00
25498;BME280;13406;53.380;7.226;2024-02-21T03:19:48;102145.63;;;8.75;100.00
25498;BME280;13406;53.380;7.226;2024-02-21T03:22:15;102160.34;;;8.71;100.00
25498;BME280;13406;53.380;7.226;2024-02-21T03:24:41;102159.94;;;8.83;100.00
25498;BME280;13406;53.380;7.226;2024-02-21T03:27:07;102137.53;;;8.67;100.00
25498;BME280;13406;53.380;7.226;2024-02-21T03:29:33;102138.06;;;8.70;100.00
25498;BME280;13406;53.380;7.226;2024-02-21T03:31:58;102115.69;;;8.71;100.00
25498;BME280;13406;53.380;7.226;2024-02-21T03:34:24;102051.75;;;8.24;100.00
25498;BME280;13406;53.380;7.226;2024-02-21T03:36:49;102014.97;;;8.00;100.00
25498;BME280;13406;53.380;7.226;2024-02-21T03:39:15;102135.63;;;8.77;100.00
25498;BME280;13406;53.380;7.226;2024-02-21T03:41:40;102136.47;;;8.77;100.00
25498;BME280;13406;53.380;7.226;2024-02-21T03:44:06;102123.22;;;8.76;100.00
25498;BME280;13406;53.380;7.226;2024-02-21T03:46:31;102102.47;;;8.70;100.00
25498;BME280;13406;53.380;7.226;2024-02-21T03:48:57;102083.34;;;8.65;100.00
25498;BME280;13406;53.380;7.226;2024-02-21T03:51:22;102028.59;;;8.33;100.00
25498;BME280;13406;53.380;7.226;2024-02-21T03:53:48;101997.44;;;8.24;100.00
25498;BME280;13406;53.380;7.226;2024-02-21T03:56:13;102064.25;;;8.77;100.00
25498;BME280;13406;53.380;7.226;2024-02-21T03:58:38;102064.06;;;8.79;100.00
25498;BME280;13406;53.380;7.226;2024-02-21T04:01:04;102060.94;;;8.83;100.00
25498;BME280;13406;53.380;7.226;2024-02-21T04:03:30;102031.06;;;8.70;100.00
25498;BME280;13406;53.380;7.226;2024-02-21T04:05:56;102002.78;;;8.59;100.00
25498;BME280;13406;53.380;7.226;2024-02-21T04:08:22;102043.78;;;8.94;100.00
25498;BME280;13406;53.380;7.226;2024-02-21T04:10:48;101986.88;;;8.58;100.00
25498;BME280;13406;53.380;7.226;2024-02-21T04:13:13;101946.09;;;8.38;100.00
25498;BME280;13406;53.380;7.226;2024-02-21T04:15:39;101904.31;;;8.11;100.00
25498;BME280;13406;53.380;7.226;2024-02-21T04:18:04;101951.72;;;8.45;100.00
25498;BME280;13406;53.380;7.226;2024-02-21T04:20:32;101994.50;;;8.79;100.00
25498;BME280;13406;53.380;7.226;2024-02-21T04:22:58;101979.59;;;8.76;100.00
25498;BME280;13406;53.380;7.226;2024-02-21T04:25:23;101991.41;;;8.92;100.00
25498;BME280;13406;53.380;7.226;2024-02-21T04:27:49;101864.38;;;8.09;100.00
25498;BME280;13406;53.380;7.226;2024-02-21T04:30:15;101963.59;;;8.85;100.00
25498;BME280;13406;53.380;7.226;2024-02-21T04:32:41;101928.72;;;8.60;100.00
25498;BME280;13406;53.380;7.226;2024-02-21T04:35:07;101861.94;;;8.16;100.00
25498;BME280;13406;53.380;7.226;2024-02-21T04:37:32;101969.50;;;8.88;100.00
25498;BME280;13406;53.380;7.226;2024-02-21T04:39:58;101970.84;;;8.92;100.00
25498;BME280;13406;53.380;7.226;2024-02-21T04:42:23;101960.66;;;8.96;100.00
25498;BME280;13406;53.380;7.226;2024-02-21T04:44:49;101939.53;;;8.85;100.00
25498;BME280;13406;53.380;7.226;2024-02-21T04:47:14;101915.25;;;8.78;100.00
25498;BME280;13406;53.380;7.226;2024-02-21T04:49:39;101948.59;;;8.92;100.00
25498;BME280;13406;53.380;7.226;2024-02-21T04:52:05;101947.97;;;8.98;100.00
25498;BME280;13406;53.380;7.226;2024-02-21T04:54:30;101961.66;;;8.95;100.00
25498;BME280;13406;53.380;7.226;2024-02-21T04:56:56;101916.47;;;8.83;100.00
25498;BME280;13406;53.380;7.226;2024-02-21T04:59:21;101796.44;;;8.12;100.00
25498;BME280;13406;53.380;7.226;2024-02-21T05:01:47;101869.16;;;8.50;100.00
25498;BME280;13406;53.380;7.226;2024-02-21T05:04:12;101809.00;;;8.20;100.00
25498;BME280;13406;53.380;7.226;2024-02-21T05:06:41;101922.50;;;8.86;100.00
25498;BME280;13406;53.380;7.226;2024-02-21T05:09:07;101915.63;;;8.83;100.00
25498;BME280;13406;53.380;7.226;2024-02-21T05:11:34;101909.59;;;8.81;100.00
25498;BME280;13406;53.380;7.226;2024-02-21T05:13:59;101872.84;;;8.49;100.00
25498;BME280;13406;53.380;7.226;2024-02-21T05:16:25;101917.16;;;8.86;100.00
25498;BME280;13406;53.380;7.226;2024-02-21T05:18:50;101895.66;;;8.69;100.00
25498;BME280;13406;53.380;7.226;2024-02-21T05:21:16;101889.16;;;8.72;100.00
25498;BME280;13406;53.380;7.226;2024-02-21T05:23:41;101911.25;;;8.74;100.00
25498;BME280;13406;53.380;7.226;2024-02-21T05:26:07;101906.59;;;8.84;100.00
25498;BME280;13406;53.380;7.226;2024-02-21T05:28:32;101896.06;;;8.82;100.00
25498;BME280;13406;53.380;7.226;2024-02-21T05:30:58;101864.91;;;8.65;100.00
25498;BME280;13406;53.380;7.226;2024-02-21T05:33:24;101891.88;;;8.80;100.00
25498;BME280;13406;53.380;7.226;2024-02-21T05:35:49;101851.50;;;8.57;100.00
25498;BME280;13406;53.380;7.226;2024-02-21T05:38:15;101846.50;;;8.62;100.00
25498;BME280;13406;53.380;7.226;2024-02-21T05:40:41;101809.38;;;8.33;100.00
25498;BME280;13406;53.380;7.226;2024-02-21T05:43:09;101869.09;;;8.76;100.00
25498;BME280;13406;53.380;7.226;2024-02-21T05:45:34;101857.88;;;8.72;100.00
25498;BME280;13406;53.380;7.226;2024-02-21T05:48:00;101883.38;;;8.93;100.00
25498;BME280;13406;53.380;7.226;2024-02-21T05:50:26;101877.66;;;8.88;100.00
25498;BME280;13406;53.380;7.226;2024-02-21T05:52:54;101800.28;;;8.44;100.00
25498;BME280;13406;53.380;7.226;2024-02-21T05:55:20;101861.44;;;8.81;100.00
25498;BME280;13406;53.380;7.226;2024-02-21T05:57:46;101809.34;;;8.59;100.00
25498;BME280;13406;53.380;7.226;2024-02-21T06:00:12;101810.88;;;8.53;100.00
25498;BME280;13406;53.380;7.226;2024-02-21T06:02:37;101868.34;;;8.92;100.00
25498;BME280;13406;53.380;7.226;2024-02-21T06:05:03;101868.97;;;8.94;100.00
25498;BME280;13406;53.380;7.226;2024-02-21T06:07:32;101815.22;;;8.54;100.00
25498;BME280;13406;53.380;7.226;2024-02-21T06:09:58;101860.59;;;8.80;100.00
25498;BME280;13406;53.380;7.226;2024-02-21T06:12:23;101878.03;;;8.93;100.00
25498;BME280;13406;53.380;7.226;2024-02-21T06:14:49;101853.69;;;8.70;100.00
25498;BME280;13406;53.380;7.226;2024-02-21T06:17:14;101814.72;;;8.59;100.00
25498;BME280;13406;53.380;7.226;2024-02-21T06:19:41;101843.03;;;8.78;100.00
25498;BME280;13406;53.380;7.226;2024-02-21T06:22:09;101862.16;;;8.91;100.00
25498;BME280;13406;53.380;7.226;2024-02-21T06:24:35;101856.25;;;8.88;100.00
25498;BME280;13406;53.380;7.226;2024-02-21T06:27:02;101838.50;;;8.78;100.00
25498;BME280;13406;53.380;7.226;2024-02-21T06:29:27;101857.13;;;8.88;100.00
25498;BME280;13406;53.380;7.226;2024-02-21T06:31:53;101847.38;;;8.79;100.00
25498;BME280;13406;53.380;7.226;2024-02-21T06:34:18;101851.78;;;8.88;100.00
25498;BME280;13406;53.380;7.226;2024-02-21T06:36:44;101843.53;;;8.81;100.00
25498;BME280;13406;53.380;7.226;2024-02-21T06:39:10;101800.69;;;8.57;100.00
25498;BME280;13406;53.380;7.226;2024-02-21T06:41:37;101850.03;;;8.79;100.00
25498;BME280;13406;53.380;7.226;2024-02-21T06:44:02;101813.38;;;8.55;100.00
25498;BME280;13406;53.380;7.226;2024-02-21T06:46:29;101850.59;;;8.91;100.00
25498;BME280;13406;53.380;7.226;2024-02-21T06:48:55;101822.00;;;8.83;100.00
25498;BME280;13406;53.380;7.226;2024-02-21T06:51:23;101800.69;;;8.57;100.00
25498;BME280;13406;53.380;7.226;2024-02-21T06:53:52;101837.88;;;8.93;100.00
25498;BME280;13406;53.380;7.226;2024-02-21T06:56:18;101812.09;;;8.75;100.00
25498;BME280;13406;53.380;7.226;2024-02-21T06:58:44;101820.09;;;8.67;100.00
25498;BME280;13406;53.380;7.226;2024-02-21T07:01:09;101848.13;;;8.97;100.00
25498;BME280;13406;53.380;7.226;2024-02-21T07:03:35;101844.44;;;9.07;100.00
25498;BME280;13406;53.380;7.226;2024-02-21T07:06:00;101832.50;;;8.85;100.00
25498;BME280;13406;53.380;7.226;2024-02-21T07:08:26;101755.19;;;8.49;100.00
25498;BME280;13406;53.380;7.226;2024-02-21T07:10:51;101834.72;;;8.89;100.00
25498;BME280;13406;53.380;7.226;2024-02-21T07:13:17;101845.91;;;8.93;100.00
25498;BME280;13406;53.380;7.226;2024-02-21T07:15:42;101815.44;;;8.77;100.00
25498;BME280;13406;53.380;7.226;2024-02-21T07:18:08;101801.16;;;8.52;100.00
25498;BME280;13406;53.380;7.226;2024-02-21T07:20:33;101852.56;;;8.80;100.00
25498;BME280;13406;53.380;7.226;2024-02-21T07:23:02;101842.72;;;8.81;100.00
25498;BME280;13406;53.380;7.226;2024-02-21T07:25:27;101852.72;;;8.79;100.00
25498;BME280;13406;53.380;7.226;2024-02-21T07:27:53;101799.59;;;8.42;100.00
25498;BME280;13406;53.380;7.226;2024-02-21T07:30:18;101875.28;;;8.76;100.00
25498;BME280;13406;53.380;7.226;2024-02-21T07:32:44;101857.66;;;8.57;100.00
25498;BME280;13406;53.380;7.226;2024-02-21T07:35:12;101840.75;;;8.49;100.00
25498;BME280;13406;53.380;7.226;2024-02-21T07:37:38;101825.50;;;8.41;100.00
25498;BME280;13406;53.380;7.226;2024-02-21T07:40:05;101802.84;;;8.19;100.00
25498;BME280;13406;53.380;7.226;2024-02-21T07:42:31;101856.75;;;8.41;100.00
25498;BME280;13406;53.380;7.226;2024-02-21T07:44:56;101842.84;;;8.37;100.00
25498;BME280;13406;53.380;7.226;2024-02-21T07:47:22;101895.97;;;8.66;100.00
25498;BME280;13406;53.380;7.226;2024-02-21T07:49:47;101872.84;;;8.49;100.00
25498;BME280;13406;53.380;7.226;2024-02-21T07:52:14;101884.91;;;8.61;100.00
25498;BME280;13406;53.380;7.226;2024-02-21T07:54:40;101900.59;;;8.56;100.00
25498;BME280;13406;53.380;7.226;2024-02-21T07:57:07;101901.28;;;8.58;100.00
25498;BME280;13406;53.380;7.226;2024-02-21T07:59:32;101914.66;;;8.58;100.00
25498;BME280;13406;53.380;7.226;2024-02-21T08:01:58;101905.44;;;8.52;100.00
25498;BME280;13406;53.380;7.226;2024-02-21T08:04:23;101927.19;;;8.57;100.00
25498;BME280;13406;53.380;7.226;2024-02-21T08:06:55;101848.34;;;8.09;100.00
25498;BME280;13406;53.380;7.226;2024-02-21T08:09:26;101857.25;;;8.18;100.00
25498;BME280;13406;53.380;7.226;2024-02-21T08:11:54;101926.56;;;8.64;100.00
25498;BME280;13406;53.380;7.226;2024-02-21T08:14:20;101859.84;;;8.28;100.00
25498;BME280;13406;53.380;7.226;2024-02-21T08:16:45;101916.66;;;8.56;100.00
25498;BME280;13406;53.380;7.226;2024-02-21T08:19:11;101912.00;;;8.58;100.00
25498;BME280;13406;53.380;7.226;2024-02-21T08:21:36;101928.72;;;8.60;100.00
25498;BME280;13406;53.380;7.226;2024-02-21T08:24:02;101927.88;;;8.59;100.00
25498;BME280;13406;53.380;7.226;2024-02-21T08:26:27;101906.78;;;8.48;100.00
25498;BME280;13406;53.380;7.226;2024-02-21T08:28:55;101923.44;;;8.42;100.00
25498;BME280;13406;53.380;7.226;2024-02-21T08:31:24;101943.06;;;8.51;100.00
25498;BME280;13406;53.380;7.226;2024-02-21T08:33:56;101945.59;;;8.60;100.00
25498;BME280;13406;53.380;7.226;2024-02-21T08:36:21;101942.50;;;8.47;100.00
25498;BME280;13406;53.380;7.226;2024-02-21T08:38:47;101884.63;;;8.12;100.00
25498;BME280;13406;53.380;7.226;2024-02-21T08:41:12;101976.34;;;8.56;100.00
25498;BME280;13406;53.380;7.226;2024-02-21T08:43:37;101978.47;;;8.53;100.00
25498;BME280;13406;53.380;7.226;2024-02-21T08:46:04;101903.63;;;8.09;100.00
25498;BME280;13406;53.380;7.226;2024-02-21T08:48:30;101952.16;;;8.40;100.00
25498;BME280;13406;53.380;7.226;2024-02-21T08:50:55;101898.34;;;8.17;100.00
25498;BME280;13406;53.380;7.226;2024-02-21T08:53:21;101881.13;;;8.11;100.00
25498;BME280;13406;53.380;7.226;2024-02-21T08:55:46;101873.63;;;8.15;100.00
25498;BME280;13406;53.380;7.226;2024-02-21T08:58:12;101929.59;;;8.69;100.00
25498;BME280;13406;53.380;7.226;2024-02-21T09:00:37;101870.22;;;8.31;100.00
25498;BME280;13406;53.380;7.226;2024-02-21T09:03:03;101930.44;;;8.69;100.00
25498;BME280;13406;53.380;7.226;2024-02-21T09:05:28;101879.03;;;8.49;100.00
25498;BME280;13406;53.380;7.226;2024-02-21T09:07:54;101898.94;;;8.55;100.00
25498;BME280;13406;53.380;7.226;2024-02-21T09:10:20;101898.00;;;8.72;100.00
25498;BME280;13406;53.380;7.226;2024-02-21T09:12:46;101881.78;;;8.66;100.00
25498;BME280;13406;53.380;7.226;2024-02-21T09:15:12;101840.88;;;8.39;100.00
25498;BME280;13406;53.380;7.226;2024-02-21T09:17:38;101789.47;;;8.19;100.00
25498;BME280;13406;53.380;7.226;2024-02-21T09:20:05;101851.69;;;8.64;100.00
25498;BME280;13406;53.380;7.226;2024-02-21T09:22:31;101841.66;;;8.66;100.00
25498;BME280;13406;53.380;7.226;2024-02-21T09:24:59;101829.47;;;8.71;100.00
25498;BME280;13406;53.380;7.226;2024-02-21T09:27:25;101798.47;;;8.52;100.00
25498;BME280;13406;53.380;7.226;2024-02-21T09:29:50;101623.59;;;7.62;100.00
25498;BME280;13406;53.380;7.226;2024-02-21T09:32:16;101791.28;;;8.53;100.00
25498;BME280;13406;53.380;7.226;2024-02-21T09:34:41;101791.28;;;8.53;100.00
25498;BME280;13406;53.380;7.226;2024-02-21T09:37:09;101810.41;;;8.66;100.00
25498;BME280;13406;53.380;7.226;2024-02-21T09:39:35;101742.81;;;8.40;100.00
25498;BME280;13406;53.380;7.226;2024-02-21T09:42:07;101771.56;;;8.46;100.00
25498;BME280;13406;53.380;7.226;2024-02-21T09:44:37;101788.13;;;8.57;100.00
25498;BME280;13406;53.380;7.226;2024-02-21T09:47:24;101788.97;;;8.58;100.00
25498;BME280;13406;53.380;7.226;2024-02-21T09:49:52;101751.19;;;8.45;100.00
25498;BME280;13406;53.380;7.226;2024-02-21T09:52:19;101683.66;;;8.00;100.00
25498;BME280;13406;53.380;7.226;2024-02-21T09:54:47;101701.94;;;8.13;100.00
25498;BME280;13406;53.380;7.226;2024-02-21T09:57:14;101664.78;;;7.93;100.00
25498;BME280;13406;53.380;7.226;2024-02-21T09:59:40;101745.72;;;8.63;100.00
25498;BME280;13406;53.380;7.226;2024-02-21T10:02:08;101763.41;;;8.64;100.00
25498;BME280;13406;53.380;7.226;2024-02-21T10:04:34;101740.16;;;8.48;100.00
25498;BME280;13406;53.380;7.226;2024-02-21T10:06:59;101717.56;;;8.50;100.00
25498;BME280;13406;53.380;7.226;2024-02-21T10:09:26;101746.50;;;8.55;100.00
25498;BME280;13406;53.380;7.226;2024-02-21T10:11:56;101736.16;;;8.60;100.00
25498;BME280;13406;53.380;7.226;2024-02-21T10:14:21;101707.03;;;8.41;100.00
25498;BME280;13406;53.380;7.226;2024-02-21T10:16:48;101722.31;;;8.73;100.00
25498;BME280;13406;53.380;7.226;2024-02-21T10:19:20;101713.59;;;8.54;100.00
25498;BME280;13406;53.380;7.226;2024-02-21T10:22:07;101709.44;;;8.60;100.00
25498;BME280;13406;53.380;7.226;2024-02-21T10:24:36;101674.16;;;8.48;100.00
25498;BME280;13406;53.380;7.226;2024-02-21T10:27:09;101680.81;;;8.44;100.00
25498;BME280;13406;53.380;7.226;2024-02-21T10:29:36;101684.84;;;8.48;100.00
25498;BME280;13406;53.380;7.226;2024-02-21T10:32:09;101679.66;;;8.55;100.00
25498;BME280;13406;53.380;7.226;2024-02-21T10:34:37;101680.00;;;8.60;100.00
25498;BME280;13406;53.380;7.226;2024-02-21T10:37:03;101669.63;;;8.49;100.00
25498;BME280;13406;53.380;7.226;2024-02-21T10:39:31;101659.75;;;8.49;100.00
25498;BME280;13406;53.380;7.226;2024-02-21T10:42:00;101668.28;;;8.53;100.00
25498;BME280;13406;53.380;7.226;2024-02-21T10:44:28;101581.16;;;8.09;100.00
25498;BME280;13406;53.380;7.226;2024-02-21T10:46:55;101649.91;;;8.58;100.00
25498;BME280;13406;53.380;7.226;2024-02-21T10:49:23;101645.72;;;8.55;100.00
25498;BME280;13406;53.380;7.226;2024-02-21T10:52:08;101592.88;;;8.25;100.00
25498;BME280;13406;53.380;7.226;2024-02-21T10:57:13;101622.50;;;8.56;100.00
25498;BME280;13406;53.380;7.226;2024-02-21T10:59:40;101613.97;;;8.60;100.00
25498;BME280;13406;53.380;7.226;2024-02-21T11:02:06;101617.34;;;8.63;100.00
25498;BME280;13406;53.380;7.226;2024-02-21T11:04:32;101594.28;;;8.53;100.00
25498;BME280;13406;53.380;7.226;2024-02-21T11:07:03;101607.81;;;8.68;100.00
25498;BME280;13406;53.380;7.226;2024-02-21T11:09:30;101579.91;;;8.54;100.00
25498;BME280;13406;53.380;7.226;2024-02-21T11:12:03;101589.25;;;8.75;100.00
25498;BME280;13406;53.380;7.226;2024-02-21T11:14:30;101587.72;;;8.80;100.00
25498;BME280;13406;53.380;7.226;2024-02-21T11:17:02;101512.56;;;8.43;100.00
25498;BME280;13406;53.380;7.226;2024-02-21T11:19:29;101575.19;;;8.89;100.00
25498;BME280;13406;53.380;7.226;2024-02-21T11:21:56;101557.47;;;8.88;100.00
25498;BME280;13406;53.380;7.226;2024-02-21T11:24:29;101528.75;;;8.74;100.00
25498;BME280;13406;53.380;7.226;2024-02-21T11:27:15;101541.06;;;8.91;100.00
25498;BME280;13406;53.380;7.226;2024-02-21T11:29:44;101539.03;;;9.01;100.00
25498;BME280;13406;53.380;7.226;2024-02-21T11:32:19;101415.63;;;8.24;100.00
25498;BME280;13406;53.380;7.226;2024-02-21T11:34:58;101508.63;;;8.94;100.00
25498;BME280;13406;53.380;7.226;2024-02-21T11:37:34;101504.44;;;9.00;100.00
25498;BME280;13406;53.380;7.226;2024-02-21T11:40:02;101495.88;;;9.04;100.00
25498;BME280;13406;53.380;7.226;2024-02-21T11:42:29;101492.03;;;8.99;100.00
25498;BME280;13406;53.380;7.226;2024-02-21T11:44:59;101489.34;;;9.07;100.00
25498;BME280;13406;53.380;7.226;2024-02-21T11:47:27;101431.75;;;8.80;100.00
25498;BME280;13406;53.380;7.226;2024-02-21T11:49:53;101503.38;;;9.17;100.00
25498;BME280;13406;53.380;7.226;2024-02-21T11:52:23;101448.91;;;8.94;100.00
25498;BME280;13406;53.380;7.226;2024-02-21T11:54:51;101457.22;;;9.07;100.00
25498;BME280;13406;53.380;7.226;2024-02-21T11:57:17;101366.78;;;8.63;100.00
25498;BME280;13406;53.380;7.226;2024-02-21T11:59:44;101459.91;;;9.07;100.00
25498;BME280;13406;53.380;7.226;2024-02-21T12:02:11;101455.34;;;9.16;100.00
25498;BME280;13406;53.380;7.226;2024-02-21T12:04:36;101443.50;;;9.10;100.00
25498;BME280;13406;53.380;7.226;2024-02-21T12:07:02;101439.31;;;9.08;100.00
25498;BME280;13406;53.380;7.226;2024-02-21T12:09:30;101440.34;;;9.07;100.00
25498;BME280;13406;53.380;7.226;2024-02-21T12:12:03;101371.75;;;8.74;100.00
25498;BME280;13406;53.380;7.226;2024-02-21T12:14:31;101394.91;;;8.90;100.00
25498;BME280;13406;53.380;7.226;2024-02-21T12:16:57;101340.03;;;8.63;100.00
25498;BME280;13406;53.380;7.226;2024-02-21T12:19:23;101372.66;;;8.98;100.00
25498;BME280;13406;53.380;7.226;2024-02-21T12:21:49;101401.00;;;9.15;100.00
25498;BME280;13406;53.380;7.226;2024-02-21T12:24:25;101284.91;;;8.62;100.00
25498;BME280;13406;53.380;7.226;2024-02-21T12:26:51;101382.56;;;9.20;100.00
25498;BME280;13406;53.380;7.226;2024-02-21T12:29:20;101297.81;;;8.81;100.00
25498;BME280;13406;53.380;7.226;2024-02-21T12:31:46;101320.41;;;8.79;100.00
25498;BME280;13406;53.380;7.226;2024-02-21T12:34:12;101360.03;;;9.15;100.00
25498;BME280;13406;53.380;7.226;2024-02-21T12:36:42;101354.16;;;9.11;100.00
25498;BME280;13406;53.380;7.226;2024-02-21T12:39:09;101337.13;;;9.12;100.00
25498;BME280;13406;53.380;7.226;2024-02-21T12:41:35;101327.41;;;9.11;100.00
25498;BME280;13406;53.380;7.226;2024-02-21T12:44:06;101299.88;;;9.02;100.00
25498;BME280;13406;53.380;7.226;2024-02-21T12:46:36;101317.25;;;9.07;100.00
25498;BME280;13406;53.380;7.226;2024-02-21T12:49:03;101307.31;;;9.15;100.00